createdAt,value
2023-04-16T00:04:55.338Z,74.14
2023-04-16T00:09:56.788Z,73.94
2023-04-16T00:14:58.304Z,73.83
2023-04-16T00:19:59.811Z,74.21
2023-04-16T00:25:01.234Z,74.51
2023-04-16T00:30:03.521Z,74.28
2023-04-16T00:35:05.475Z,74.28
2023-04-16T00:40:07.406Z,74.33
2023-04-16T00:45:09.869Z,74.46
2023-04-16T00:50:12.065Z,74.38
2023-04-16T00:55:13.731Z,74.69
2023-04-16T01:00:15.402Z,74.86
2023-04-16T01:05:16.895Z,77.42
2023-04-16T01:10:18.339Z,78.26
2023-04-16T01:15:19.928Z,79.77
2023-04-16T01:20:21.626Z,77.47
2023-04-16T01:25:23.039Z,77.71
2023-04-16T01:30:25.048Z,77.60
2023-04-16T01:35:38.150Z,77.65
2023-04-16T01:40:39.621Z,77.80
2023-04-16T01:45:41.086Z,77.96
2023-04-16T01:50:42.550Z,76.11
2023-04-16T01:55:49.152Z,78.42
2023-04-16T02:00:50.669Z,80.46
2023-04-16T02:05:52.317Z,79.47
2023-04-16T02:10:54.062Z,77.98
2023-04-16T02:15:55.575Z,76.38
2023-04-16T02:21:11.247Z,76.72
2023-04-16T02:26:13.645Z,75.68
2023-04-16T02:31:19.389Z,76.83
2023-04-16T02:36:22.557Z,75.78
2023-04-16T02:41:24.333Z,75.94
2023-04-16T02:46:25.792Z,75.10
2023-04-16T02:51:27.736Z,76.22
2023-04-16T02:56:29.260Z,75.37
2023-04-16T03:01:30.749Z,76.19
2023-04-16T03:06:32.649Z,76.22
2023-04-16T03:11:34.154Z,77.54
2023-04-16T03:16:35.603Z,76.85
2023-04-16T03:21:37.110Z,78.88
2023-04-16T03:26:38.571Z,78.97
2023-04-16T03:31:40.160Z,79.18
2023-04-16T03:36:42.332Z,77.24
2023-04-16T03:41:43.970Z,77.65
2023-04-16T03:46:45.592Z,78.44
2023-04-16T03:51:47.430Z,76.50
2023-04-16T03:56:48.873Z,76.70
2023-04-16T04:01:51.924Z,77.11
2023-04-16T04:06:53.501Z,78.51
2023-04-16T04:11:55.342Z,79.67
2023-04-16T04:16:56.958Z,79.41
2023-04-16T04:21:58.576Z,80.15
2023-04-16T04:27:00.211Z,80.11
2023-04-16T04:32:02.474Z,80.29
2023-04-16T04:37:05.642Z,80.22
2023-04-16T04:42:07.238Z,79.62
2023-04-16T04:47:08.829Z,80.37
2023-04-16T04:52:13.412Z,81.05
2023-04-16T04:57:15.883Z,80.51
2023-04-16T05:02:18.491Z,81.19
2023-04-16T05:07:19.984Z,81.27
2023-04-16T05:12:21.427Z,81.53
2023-04-16T05:17:23.005Z,82.81
2023-04-16T05:22:24.750Z,81.84
2023-04-16T05:27:26.132Z,82.28
2023-04-16T05:32:27.879Z,81.06
2023-04-16T05:37:29.501Z,80.53
2023-04-16T05:42:31.068Z,78.99
2023-04-16T05:47:32.637Z,79.16
2023-04-16T05:52:34.232Z,80.17
2023-04-16T05:57:35.989Z,80.30
2023-04-16T06:02:37.554Z,80.82
2023-04-16T06:07:39.148Z,79.21
2023-04-16T06:12:40.735Z,79.47
2023-04-16T06:17:42.236Z,80.26
2023-04-16T06:22:43.855Z,81.18
2023-04-16T06:27:45.339Z,81.59
2023-04-16T06:32:46.993Z,80.86
2023-04-16T06:37:48.681Z,80.61
2023-04-16T06:42:50.143Z,80.15
2023-04-16T06:47:52.344Z,80.25
2023-04-16T06:52:54.681Z,78.39
2023-04-16T06:57:56.196Z,79.37
2023-04-16T07:02:58.718Z,79.71
2023-04-16T07:08:00.306Z,81.65
2023-04-16T07:13:01.851Z,81.12
2023-04-16T07:18:03.326Z,81.31
2023-04-16T07:23:04.860Z,80.38
2023-04-16T07:28:06.411Z,78.51
2023-04-16T07:33:07.912Z,79.97
2023-04-16T07:38:09.377Z,78.43
2023-04-16T07:43:10.976Z,79.02
2023-04-16T07:48:12.437Z,78.38
2023-04-16T07:53:13.940Z,78.00
2023-04-16T07:58:15.387Z,78.36
2023-04-16T08:03:17.057Z,77.62
2023-04-16T08:08:18.640Z,77.37
2023-04-16T08:13:20.137Z,78.57
2023-04-16T08:18:21.611Z,78.26
2023-04-16T08:23:23.086Z,78.02
2023-04-16T08:28:24.541Z,78.49
2023-04-16T08:33:26.374Z,78.54
2023-04-16T08:38:27.870Z,79.47
2023-04-16T08:43:33.956Z,79.31
2023-04-16T08:48:37.533Z,79.21
2023-04-16T08:54:09.142Z,79.25
2023-04-16T08:59:10.986Z,79.14
2023-04-16T09:04:14.676Z,79.66
2023-04-16T09:09:17.581Z,79.60
2023-04-16T09:14:19.619Z,78.99
2023-04-16T09:19:21.264Z,79.59
2023-04-16T09:24:22.925Z,78.96
2023-04-16T09:29:39.059Z,78.50
2023-04-16T09:35:00.913Z,78.17
2023-04-16T09:40:04.126Z,76.57
2023-04-16T09:45:06.396Z,76.82
2023-04-16T09:50:11.297Z,75.58
2023-04-16T09:55:14.023Z,77.23
2023-04-16T10:00:18.413Z,78.36
2023-04-16T10:05:20.112Z,78.64
2023-04-16T10:10:22.212Z,80.34
2023-04-16T10:15:23.754Z,81.67
2023-04-16T10:20:26.185Z,82.21
2023-04-16T10:25:28.745Z,83.53
2023-04-16T10:30:30.928Z,82.71
2023-04-16T10:35:32.401Z,76.19
2023-04-16T10:40:35.133Z,79.16
2023-04-16T10:45:39.620Z,73.49
2023-04-16T10:50:41.458Z,74.71
2023-04-16T10:55:56.685Z,68.03
2023-04-16T11:01:06.379Z,71.16
2023-04-16T11:06:17.625Z,73.61
2023-04-16T11:11:19.647Z,78.50
2023-04-16T11:16:21.117Z,75.77
2023-04-16T11:21:23.346Z,70.26
2023-04-16T11:26:27.229Z,73.81
2023-04-16T11:31:28.857Z,69.09
2023-04-16T11:36:46.065Z,71.53
2023-04-16T11:41:49.480Z,67.11
2023-04-16T11:46:52.042Z,70.85
2023-04-16T11:51:53.556Z,66.72
2023-04-16T11:56:55.120Z,66.18
2023-04-16T12:01:56.683Z,62.70
2023-04-16T12:07:13.103Z,65.18
2023-04-16T12:12:28.038Z,67.61
2023-04-16T12:17:31.840Z,61.93
2023-04-16T12:22:37.225Z,61.48
2023-04-16T12:27:52.756Z,63.69
2023-04-16T12:33:17.999Z,68.87
2023-04-16T12:38:19.958Z,60.94
2023-04-16T12:43:22.704Z,69.19
2023-04-16T12:48:24.151Z,65.48
2023-04-16T12:53:26.081Z,66.23
2023-04-16T12:58:27.525Z,65.74
2023-04-16T13:03:29.100Z,65.96
2023-04-16T13:08:30.730Z,66.52
2023-04-16T13:13:32.417Z,70.19
2023-04-16T13:18:34.878Z,69.11
2023-04-16T13:23:36.412Z,71.09
2023-04-16T13:28:37.861Z,68.25
2023-04-16T13:33:39.415Z,67.18
2023-04-16T13:38:42.147Z,64.83
2023-04-16T13:43:43.596Z,66.03
2023-04-16T13:48:46.100Z,67.12
2023-04-16T13:53:47.734Z,65.23
2023-04-16T13:58:49.446Z,72.52
2023-04-16T14:03:51.044Z,73.24
2023-04-16T14:08:52.534Z,71.76
2023-04-16T14:13:53.974Z,73.58
2023-04-16T14:18:55.409Z,74.08
2023-04-16T14:23:56.948Z,74.33
2023-04-16T14:28:58.387Z,75.17
2023-04-16T14:33:59.857Z,74.67
2023-04-16T14:39:01.399Z,73.95
2023-04-16T14:44:04.239Z,76.10
2023-04-16T14:49:05.698Z,76.02
2023-04-16T14:54:07.335Z,74.67
2023-04-16T14:59:09.097Z,74.09
2023-04-16T15:04:10.996Z,75.54
2023-04-16T15:09:12.704Z,74.61
2023-04-16T15:14:14.333Z,78.17
2023-04-16T15:19:16.005Z,74.68
2023-04-16T15:24:17.463Z,76.98
2023-04-16T15:29:18.892Z,78.06
2023-04-16T15:34:20.457Z,76.97
2023-04-16T15:39:21.912Z,80.05
2023-04-16T15:44:23.405Z,78.55
2023-04-16T15:49:25.334Z,79.95
2023-04-16T15:54:27.149Z,78.87
2023-04-16T15:59:29.081Z,78.42
2023-04-16T16:04:30.798Z,78.18
2023-04-16T16:09:32.303Z,79.90
2023-04-16T16:14:33.766Z,78.94
2023-04-16T16:19:35.257Z,80.28
2023-04-16T16:24:36.868Z,81.79
2023-04-16T16:29:38.361Z,80.92
2023-04-16T16:34:39.812Z,80.83
2023-04-16T16:39:41.397Z,82.48
2023-04-16T16:44:42.893Z,81.06
2023-04-16T16:49:45.605Z,81.25
2023-04-16T16:54:47.121Z,82.05
2023-04-16T16:59:50.407Z,82.46
2023-04-16T17:04:52.796Z,81.71
2023-04-16T17:09:54.298Z,82.15
2023-04-16T17:14:56.063Z,82.63
2023-04-16T17:19:57.557Z,82.30
2023-04-16T17:24:59.126Z,82.42
2023-04-16T17:30:01.917Z,83.17
2023-04-16T17:35:04.327Z,83.24
2023-04-16T17:40:07.900Z,83.13
2023-04-16T17:45:09.872Z,83.04
2023-04-16T17:50:12.065Z,83.64
2023-04-16T17:55:13.776Z,84.24
2023-04-16T18:00:16.173Z,82.83
2023-04-16T18:05:18.962Z,82.55
2023-04-16T18:10:20.518Z,82.71
2023-04-16T18:15:21.994Z,82.82
2023-04-16T18:20:23.449Z,83.28
2023-04-16T18:25:33.896Z,84.01
2023-04-16T18:30:36.289Z,83.15
2023-04-16T18:35:39.182Z,84.50
2023-04-16T18:40:42.084Z,84.11
2023-04-16T18:45:45.299Z,84.77
2023-04-16T18:50:46.745Z,86.19
2023-04-16T18:55:55.282Z,84.76
2023-04-16T19:00:59.781Z,84.50
2023-04-16T19:06:01.476Z,84.80
2023-04-16T19:11:03.331Z,85.07
2023-04-16T19:16:11.158Z,85.50
2023-04-16T19:21:12.943Z,86.83
2023-04-16T19:26:14.681Z,86.41
2023-04-16T19:31:16.473Z,86.40
2023-04-16T19:36:18.234Z,86.14
2023-04-16T19:41:19.724Z,86.11
2023-04-16T19:46:21.191Z,84.77
2023-04-16T19:51:22.911Z,84.41
2023-04-16T19:56:24.767Z,83.68
2023-04-16T20:01:26.333Z,83.80
2023-04-16T20:06:27.849Z,83.89
2023-04-16T20:11:29.379Z,84.60
2023-04-16T20:16:32.002Z,84.16
2023-04-16T20:21:33.508Z,83.90
2023-04-16T20:26:36.465Z,83.71
2023-04-16T20:31:37.945Z,83.64
2023-04-16T20:36:39.339Z,84.71
2023-04-16T20:41:44.906Z,85.61
2023-04-16T20:46:49.510Z,83.98
2023-04-16T20:51:51.330Z,84.49
2023-04-16T20:56:52.762Z,85.77
2023-04-16T21:01:55.054Z,86.13
2023-04-16T21:06:56.687Z,85.79
2023-04-16T21:11:58.051Z,86.20
2023-04-16T21:16:59.530Z,86.33
2023-04-16T21:22:02.799Z,86.64
2023-04-16T21:27:04.273Z,87.23
2023-04-16T21:32:06.297Z,87.02
2023-04-16T21:37:08.291Z,87.61
2023-04-16T21:42:09.748Z,87.39
2023-04-16T21:47:11.162Z,85.53
2023-04-16T21:52:18.266Z,85.21
2023-04-16T21:57:19.791Z,86.07
2023-04-16T22:02:21.274Z,86.43
2023-04-16T22:07:22.855Z,86.58
2023-04-16T22:12:24.328Z,85.79
2023-04-16T22:17:27.648Z,85.94
2023-04-16T22:22:29.174Z,85.90
2023-04-16T22:27:30.634Z,86.65
2023-04-16T22:32:33.122Z,87.14
2023-04-16T22:37:34.596Z,87.14
2023-04-16T22:42:36.116Z,86.71
2023-04-16T22:47:37.611Z,87.27
2023-04-16T22:52:39.098Z,86.74
2023-04-16T22:57:40.552Z,86.86
2023-04-16T23:02:42.195Z,86.00
2023-04-16T23:07:43.715Z,86.46
2023-04-16T23:12:45.503Z,86.30
2023-04-16T23:17:47.020Z,86.03
2023-04-16T23:22:48.468Z,86.42
2023-04-16T23:27:49.926Z,85.91
2023-04-16T23:32:51.516Z,86.14
2023-04-16T23:37:52.909Z,86.89
2023-04-16T23:42:54.365Z,86.55
2023-04-16T23:47:56.054Z,86.75
2023-04-16T23:52:57.539Z,87.90
2023-04-16T23:57:59.002Z,87.12
